createdAt,value
2018-01-21T00:01:23.065Z,3.60
2018-01-21T00:03:52.749Z,3.50
2018-01-21T00:06:22.636Z,3.90
2018-01-21T00:08:52.330Z,3.73
2018-01-21T00:11:22.762Z,3.77
2018-01-21T00:13:52.984Z,3.80
2018-01-21T00:16:23.401Z,3.50
2018-01-21T00:18:54.237Z,3.93
2018-01-21T00:21:25.727Z,4.30
2018-01-21T00:23:56.721Z,4.03
2018-01-21T00:26:27.154Z,4.00
2018-01-21T00:28:57.625Z,4.60
2018-01-21T00:31:27.312Z,4.77
2018-01-21T00:33:57.060Z,5.10
2018-01-21T00:36:27.730Z,4.43
2018-01-21T00:38:58.149Z,5.20
2018-01-21T00:41:28.579Z,6.00
2018-01-21T00:43:59.006Z,6.23
2018-01-21T00:46:29.457Z,6.13
2018-01-21T00:48:59.131Z,7.20
2018-01-21T00:51:28.809Z,5.33
2018-01-21T00:53:58.877Z,5.60
2018-01-21T00:56:29.329Z,5.47
2018-01-21T00:58:59.010Z,6.10
2018-01-21T01:01:29.422Z,5.53
2018-01-21T01:03:59.116Z,5.73
2018-01-21T01:06:29.272Z,6.83
2018-01-21T01:08:59.713Z,6.30
2018-01-21T01:11:29.787Z,6.73
2018-01-21T01:13:59.774Z,5.00
2018-01-21T01:16:29.486Z,5.50
2018-01-21T01:18:59.165Z,6.00
2018-01-21T01:21:28.898Z,5.47
2018-01-21T01:23:58.946Z,5.87
2018-01-21T01:26:28.646Z,5.77
2018-01-21T01:28:58.341Z,6.67
2018-01-21T01:31:28.014Z,6.00
2018-01-21T01:33:57.736Z,6.60
2018-01-21T01:36:27.400Z,6.23
2018-01-21T01:38:57.113Z,6.23
2018-01-21T01:41:27.161Z,6.20
2018-01-21T01:43:57.158Z,8.00
2018-01-21T01:46:27.588Z,6.43
2018-01-21T01:48:58.030Z,8.80
2018-01-21T01:51:27.726Z,8.17
2018-01-21T01:53:59.001Z,8.43
2018-01-21T01:56:28.674Z,7.70
2018-01-21T01:58:59.183Z,7.73
2018-01-21T02:01:29.676Z,8.43
2018-01-21T02:03:59.361Z,9.23
2018-01-21T02:06:29.078Z,8.37
2018-01-21T02:08:58.735Z,12.17
2018-01-21T02:11:31.136Z,13.30
2018-01-21T02:14:01.557Z,11.57
2018-01-21T02:16:32.002Z,14.00
2018-01-21T02:19:01.670Z,15.60
2018-01-21T02:21:31.378Z,16.60
2018-01-21T02:24:01.102Z,17.07
2018-01-21T02:26:30.862Z,15.90
2018-01-21T02:29:00.534Z,14.67
2018-01-21T02:31:30.970Z,18.47
2018-01-21T02:34:01.418Z,18.33
2018-01-21T02:36:31.095Z,17.20
2018-01-21T02:39:01.536Z,19.50
2018-01-21T02:41:32.001Z,19.27
2018-01-21T02:44:03.111Z,20.93
2018-01-21T02:46:32.822Z,19.07
2018-01-21T02:49:02.510Z,18.37
2018-01-21T02:51:32.947Z,19.10
2018-01-21T02:54:02.655Z,16.77
2018-01-21T02:56:33.227Z,18.20
2018-01-21T02:59:02.922Z,16.57
2018-01-21T03:01:32.613Z,16.80
2018-01-21T03:04:02.325Z,15.87
2018-01-21T03:06:33.449Z,16.00
2018-01-21T03:09:03.976Z,16.40
2018-01-21T03:11:34.452Z,13.60
2018-01-21T03:14:04.126Z,15.50
2018-01-21T03:16:34.578Z,14.90
2018-01-21T03:19:05.320Z,15.70
2018-01-21T03:21:35.016Z,16.07
2018-01-21T03:24:04.705Z,15.07
2018-01-21T03:26:35.142Z,15.37
2018-01-21T03:29:04.932Z,15.50
2018-01-21T03:31:35.351Z,15.30
2018-01-21T03:34:05.809Z,15.73
2018-01-21T03:36:35.518Z,15.27
2018-01-21T03:39:05.477Z,14.20
2018-01-21T03:41:35.150Z,16.23
2018-01-21T03:44:04.842Z,14.30
2018-01-21T03:46:35.326Z,14.67
2018-01-21T03:49:05.686Z,15.60
2018-01-21T03:51:36.961Z,14.07
2018-01-21T03:54:07.411Z,13.40
2018-01-21T03:56:37.087Z,14.43
2018-01-21T03:59:07.795Z,13.80
2018-01-21T04:01:38.533Z,12.17
2018-01-21T04:04:09.009Z,10.93
2018-01-21T04:06:39.573Z,10.70
2018-01-21T04:09:09.263Z,9.60
2018-01-21T04:11:38.965Z,10.27
2018-01-21T04:14:08.941Z,10.53
2018-01-21T04:16:39.242Z,9.67
2018-01-21T04:19:09.701Z,11.33
2018-01-21T04:21:39.386Z,11.20
2018-01-21T04:24:09.821Z,10.97
2018-01-21T04:26:40.273Z,11.10
2018-01-21T04:29:10.653Z,11.67
2018-01-21T04:31:41.111Z,11.50
2018-01-21T04:34:11.525Z,10.03
2018-01-21T04:36:41.225Z,10.17
2018-01-21T04:39:11.671Z,10.90
2018-01-21T04:41:41.454Z,10.87
2018-01-21T04:44:11.902Z,10.47
2018-01-21T04:46:41.573Z,11.90
2018-01-21T04:49:11.365Z,10.13
2018-01-21T04:51:41.782Z,11.00
2018-01-21T04:54:11.491Z,10.80
2018-01-21T04:56:41.166Z,11.43
2018-01-21T04:59:11.614Z,10.40
2018-01-21T05:01:41.298Z,11.33
2018-01-21T05:04:11.814Z,11.17
2018-01-21T05:06:42.287Z,10.87
2018-01-21T05:09:11.982Z,11.50
2018-01-21T05:11:41.709Z,11.40
2018-01-21T05:14:11.418Z,11.63
2018-01-21T05:16:41.109Z,10.47
2018-01-21T05:19:10.823Z,11.37
2018-01-21T05:21:40.494Z,11.17
2018-01-21T05:24:11.157Z,11.67
2018-01-21T05:26:40.874Z,10.50
2018-01-21T05:29:10.577Z,11.70
2018-01-21T05:31:40.265Z,11.57
2018-01-21T05:34:11.796Z,12.27
2018-01-21T05:36:41.476Z,12.70
2018-01-21T05:39:11.150Z,12.07
2018-01-21T05:41:40.849Z,12.00
2018-01-21T05:44:11.310Z,11.27
2018-01-21T05:46:40.960Z,10.70
2018-01-21T05:49:10.675Z,10.37
2018-01-21T05:51:40.473Z,12.27
2018-01-21T05:54:10.160Z,10.73
2018-01-21T05:56:39.844Z,12.40
2018-01-21T05:59:09.562Z,11.13
2018-01-21T06:01:39.418Z,11.20
2018-01-21T06:04:09.122Z,14.50
2018-01-21T06:06:39.732Z,34.83
2018-01-21T06:09:09.645Z,27.53
2018-01-21T06:11:39.302Z,16.80
2018-01-21T06:14:09.915Z,10.93
2018-01-21T06:16:39.609Z,12.17
2018-01-21T06:19:09.466Z,11.60
2018-01-21T06:21:39.910Z,12.50
2018-01-21T06:24:09.690Z,11.93
2018-01-21T06:26:40.629Z,12.40
2018-01-21T06:29:11.056Z,11.87
2018-01-21T06:31:41.491Z,14.70
2018-01-21T06:34:11.935Z,14.30
2018-01-21T06:36:41.646Z,13.00
2018-01-21T06:39:11.327Z,13.63
2018-01-21T06:41:41.761Z,12.67
2018-01-21T06:44:12.604Z,12.00
2018-01-21T06:46:43.040Z,12.30
2018-01-21T06:49:12.726Z,14.10
2018-01-21T06:51:43.152Z,14.20
2018-01-21T06:54:12.874Z,13.87
2018-01-21T06:56:43.329Z,14.80
2018-01-21T06:59:13.038Z,13.00
2018-01-21T07:01:42.714Z,13.40
2018-01-21T07:04:13.153Z,15.87
2018-01-21T07:06:42.849Z,16.07
2018-01-21T07:09:13.287Z,15.17
2018-01-21T07:11:43.730Z,14.87
2018-01-21T07:14:13.434Z,15.50
2018-01-21T07:16:43.111Z,14.27
2018-01-21T07:19:12.798Z,14.27
2018-01-21T07:21:42.498Z,13.83
2018-01-21T07:24:12.173Z,13.47
2018-01-21T07:26:41.882Z,14.20
2018-01-21T07:29:11.573Z,13.33
2018-01-21T07:31:42.033Z,13.47
2018-01-21T07:34:12.024Z,13.97
2018-01-21T07:36:41.777Z,12.70
2018-01-21T07:39:11.466Z,13.33
2018-01-21T07:41:41.162Z,12.80
2018-01-21T07:44:10.843Z,10.73
2018-01-21T07:46:41.345Z,13.30
2018-01-21T07:49:11.040Z,13.20
2018-01-21T07:51:40.848Z,13.13
2018-01-21T07:54:10.518Z,14.80
2018-01-21T07:56:40.953Z,14.07
2018-01-21T07:59:10.665Z,13.70
2018-01-21T08:01:40.379Z,14.13
2018-01-21T08:04:10.069Z,13.30
2018-01-21T08:06:40.563Z,15.30
2018-01-21T08:09:10.305Z,14.27
2018-01-21T08:11:40.746Z,13.17
2018-01-21T08:14:10.437Z,12.83
2018-01-21T08:16:40.912Z,11.27
2018-01-21T08:19:10.597Z,10.10
2018-01-21T08:21:40.309Z,10.80
2018-01-21T08:24:10.018Z,10.37
2018-01-21T08:26:39.730Z,11.60
2018-01-21T08:29:09.425Z,12.53
2018-01-21T08:31:39.940Z,12.37
2018-01-21T08:34:15.685Z,13.50
2018-01-21T08:36:51.540Z,14.30
2018-01-21T08:39:27.338Z,13.30
2018-01-21T08:41:57.518Z,13.13
2018-01-21T08:44:28.084Z,13.50
2018-01-21T08:46:57.750Z,13.37
2018-01-21T08:49:28.208Z,14.97
2018-01-21T08:51:57.955Z,14.83
2018-01-21T08:54:27.648Z,15.13
2018-01-21T08:56:57.324Z,16.80
2018-01-21T08:59:27.781Z,16.70
2018-01-21T09:01:57.485Z,18.20
2018-01-21T09:04:27.180Z,17.83
2018-01-21T09:06:56.894Z,20.40
2018-01-21T09:09:26.574Z,18.17
2018-01-21T09:11:57.034Z,16.70
2018-01-21T09:14:26.721Z,18.03
2018-01-21T09:16:56.423Z,17.97
2018-01-21T09:19:26.846Z,17.20
2018-01-21T09:21:57.313Z,19.20
2018-01-21T09:24:27.389Z,16.30
2018-01-21T09:26:57.857Z,15.33
2018-01-21T09:29:27.749Z,16.57
2018-01-21T09:31:57.414Z,16.70
2018-01-21T09:34:27.114Z,16.50
2018-01-21T09:36:57.581Z,16.40
2018-01-21T09:39:28.053Z,19.43
2018-01-21T09:41:57.758Z,18.80
2018-01-21T09:44:27.463Z,21.43
2018-01-21T09:46:57.177Z,19.10
2018-01-21T09:49:27.230Z,20.90
2018-01-21T09:51:56.960Z,20.50
2018-01-21T09:54:27.421Z,19.93
2018-01-21T09:56:57.180Z,21.47
2018-01-21T09:59:27.141Z,19.90
2018-01-21T10:01:57.235Z,18.80
2018-01-21T10:04:27.702Z,16.77
2018-01-21T10:06:57.446Z,17.70
2018-01-21T10:09:27.165Z,16.60
2018-01-21T10:11:56.891Z,16.50
2018-01-21T10:14:27.347Z,17.47
2018-01-21T10:16:57.065Z,15.90
2018-01-21T10:19:28.113Z,16.17
2018-01-21T10:21:57.856Z,16.10
2018-01-21T10:24:27.614Z,16.67
2018-01-21T10:26:57.327Z,17.80
2018-01-21T10:29:27.065Z,16.20
2018-01-21T10:31:56.811Z,15.77
2018-01-21T10:34:27.290Z,15.70
2018-01-21T10:36:56.986Z,16.03
2018-01-21T10:39:26.678Z,17.57
2018-01-21T10:41:57.118Z,16.20
2018-01-21T10:44:26.793Z,16.17
2018-01-21T10:46:56.438Z,17.13
2018-01-21T10:49:26.140Z,17.53
2018-01-21T10:51:56.238Z,17.13
2018-01-21T10:54:26.703Z,19.20
2018-01-21T10:56:56.395Z,18.80
2018-01-21T10:59:31.670Z,17.40
2018-01-21T11:02:01.972Z,16.87
2018-01-21T11:04:31.665Z,14.80
2018-01-21T11:07:01.342Z,15.87
2018-01-21T11:09:31.041Z,15.03
2018-01-21T11:12:00.721Z,15.37
2018-01-21T11:14:30.417Z,16.00
2018-01-21T11:17:00.129Z,15.63
2018-01-21T11:19:29.806Z,16.73
2018-01-21T11:22:00.303Z,15.27
2018-01-21T11:24:29.987Z,14.27
2018-01-21T11:26:59.699Z,13.30
2018-01-21T11:29:29.393Z,11.80
2018-01-21T11:31:59.117Z,9.83
2018-01-21T11:34:28.797Z,9.43
2018-01-21T11:36:58.783Z,8.70
2018-01-21T11:39:28.492Z,10.53
2018-01-21T11:41:58.198Z,15.53
2018-01-21T11:44:27.861Z,10.10
2018-01-21T11:46:59.001Z,10.27
2018-01-21T11:49:28.736Z,9.77
2018-01-21T11:51:58.489Z,9.20
2018-01-21T11:54:28.962Z,8.73
2018-01-21T11:56:58.662Z,9.00
2018-01-21T11:59:28.372Z,10.10
2018-01-21T12:01:58.145Z,9.60
2018-01-21T12:04:28.570Z,8.80
2018-01-21T12:06:59.822Z,9.40
2018-01-21T12:09:30.292Z,8.13
2018-01-21T12:12:00.152Z,9.00
2018-01-21T12:14:30.652Z,8.60
2018-01-21T12:17:00.395Z,7.90
2018-01-21T12:19:30.902Z,6.60
2018-01-21T12:22:00.946Z,6.20
2018-01-21T12:24:31.403Z,6.43
2018-01-21T12:27:01.718Z,6.60
2018-01-21T12:29:31.410Z,6.63
2018-01-21T12:32:01.848Z,7.87
2018-01-21T12:34:32.666Z,6.73
2018-01-21T12:37:03.119Z,7.07
2018-01-21T12:39:32.922Z,7.83
2018-01-21T12:42:02.647Z,7.80
2018-01-21T12:44:32.350Z,7.10
2018-01-21T12:47:02.357Z,8.20
2018-01-21T12:49:32.094Z,8.43
2018-01-21T12:52:02.830Z,8.03
2018-01-21T12:54:32.524Z,7.60
2018-01-21T12:57:02.332Z,11.30
2018-01-21T12:59:32.013Z,8.80
2018-01-21T13:02:02.439Z,8.93
2018-01-21T13:04:32.925Z,8.43
2018-01-21T13:07:02.629Z,8.33
2018-01-21T13:09:32.645Z,9.30
2018-01-21T13:12:02.321Z,8.47
2018-01-21T13:14:32.159Z,9.60
2018-01-21T13:17:01.841Z,10.10
2018-01-21T13:19:31.714Z,8.43
2018-01-21T13:22:02.810Z,9.63
2018-01-21T13:24:32.593Z,9.27
2018-01-21T13:27:03.146Z,10.10
2018-01-21T13:29:32.958Z,9.40
2018-01-21T13:32:02.786Z,9.80
2018-01-21T13:34:32.590Z,11.97
2018-01-21T13:37:03.236Z,10.43
2018-01-21T13:39:34.552Z,10.80
2018-01-21T13:42:05.143Z,9.50
2018-01-21T13:44:34.985Z,10.63
2018-01-21T13:47:05.589Z,11.30
2018-01-21T13:49:35.467Z,12.13
2018-01-21T13:52:05.321Z,12.40
2018-01-21T13:54:35.153Z,12.43
2018-01-21T13:57:05.844Z,10.73
2018-01-21T13:59:35.701Z,12.27
2018-01-21T14:02:06.276Z,11.10
2018-01-21T14:04:36.105Z,11.07
2018-01-21T14:07:05.995Z,10.80
2018-01-21T14:09:35.858Z,11.57
2018-01-21T14:12:06.731Z,11.67
2018-01-21T14:14:36.631Z,10.03
2018-01-21T14:17:07.222Z,9.60
2018-01-21T14:19:37.090Z,10.77
2018-01-21T14:22:08.206Z,9.77
2018-01-21T14:24:38.897Z,10.93
2018-01-21T14:27:08.752Z,10.60
2018-01-21T14:29:40.386Z,10.97
2018-01-21T14:32:10.251Z,10.60
2018-01-21T14:34:40.974Z,11.30
2018-01-21T14:37:10.826Z,12.00
2018-01-21T14:39:40.676Z,11.53
2018-01-21T14:42:11.289Z,11.30
2018-01-21T14:44:41.145Z,11.00
2018-01-21T14:47:11.015Z,10.30
2018-01-21T14:49:41.127Z,10.80
2018-01-21T14:52:11.038Z,11.07
2018-01-21T14:54:41.066Z,11.37
2018-01-21T14:57:10.941Z,10.57
2018-01-21T14:59:40.782Z,11.60
2018-01-21T15:02:10.653Z,11.47
2018-01-21T15:04:40.516Z,11.23
2018-01-21T15:07:10.494Z,11.47
2018-01-21T15:09:40.376Z,11.20
2018-01-21T15:12:11.037Z,11.87
2018-01-21T15:14:40.877Z,12.23
2018-01-21T15:17:10.925Z,11.67
2018-01-21T15:19:41.526Z,11.30
2018-01-21T15:22:12.018Z,11.23
2018-01-21T15:24:41.920Z,11.57
2018-01-21T15:27:12.078Z,11.50
2018-01-21T15:29:42.893Z,12.00
2018-01-21T15:32:12.710Z,11.93
2018-01-21T15:34:42.574Z,11.10
2018-01-21T15:37:12.436Z,11.37
2018-01-21T15:39:42.535Z,13.23
2018-01-21T15:42:13.465Z,11.73
2018-01-21T15:44:44.104Z,13.50
2018-01-21T15:47:15.838Z,13.40
2018-01-21T15:49:47.723Z,16.10
2018-01-21T15:52:19.109Z,16.13
2018-01-21T15:54:49.033Z,16.87
2018-01-21T15:57:18.854Z,18.47
2018-01-21T15:59:48.728Z,17.37
2018-01-21T16:02:18.922Z,17.47
2018-01-21T16:04:48.955Z,19.37
2018-01-21T16:07:19.132Z,20.33
2018-01-21T16:09:48.929Z,18.33
2018-01-21T16:12:18.832Z,19.80
2018-01-21T16:14:48.591Z,18.33
2018-01-21T16:17:19.897Z,18.20
2018-01-21T16:19:49.618Z,19.10
2018-01-21T16:22:19.346Z,18.43
2018-01-21T16:24:49.805Z,15.70
2018-01-21T16:27:19.493Z,17.43
2018-01-21T16:29:50.029Z,16.50
2018-01-21T16:32:20.481Z,15.70
2018-01-21T16:34:50.196Z,16.07
2018-01-21T16:37:30.942Z,17.23
2018-01-21T16:40:01.014Z,15.87
2018-01-21T16:42:30.705Z,16.10
2018-01-21T16:45:00.638Z,14.50
2018-01-21T16:47:30.311Z,14.97
2018-01-21T16:50:00.076Z,14.00
2018-01-21T16:52:29.780Z,13.50
2018-01-21T16:54:59.481Z,12.80
2018-01-21T16:57:29.163Z,12.60
2018-01-21T16:59:59.125Z,13.93
2018-01-21T17:02:29.579Z,14.50
2018-01-21T17:04:59.283Z,15.30
2018-01-21T17:07:28.946Z,13.67
2018-01-21T17:09:58.647Z,14.37
2018-01-21T17:12:28.362Z,13.80
2018-01-21T17:14:58.104Z,14.93
2018-01-21T17:17:28.546Z,15.73
2018-01-21T17:19:58.243Z,15.20
2018-01-21T17:22:28.791Z,14.37
2018-01-21T17:24:58.470Z,14.20
2018-01-21T17:27:28.954Z,15.60
2018-01-21T17:29:58.631Z,15.07
2018-01-21T17:32:28.349Z,13.50
2018-01-21T17:34:58.049Z,13.13
2018-01-21T17:37:27.770Z,11.90
2018-01-21T17:39:57.477Z,13.77
2018-01-21T17:42:27.175Z,13.47
2018-01-21T17:44:56.877Z,14.57
2018-01-21T17:47:29.117Z,15.30
2018-01-21T17:49:58.785Z,14.20
2018-01-21T17:52:28.481Z,14.70
2018-01-21T17:54:58.192Z,13.83
2018-01-21T17:57:27.834Z,15.07
2018-01-21T17:59:57.518Z,14.90
2018-01-21T18:02:27.210Z,15.00
2018-01-21T18:04:56.936Z,15.60
2018-01-21T18:07:26.623Z,18.73
2018-01-21T18:09:57.103Z,17.87
2018-01-21T18:12:26.784Z,17.63
2018-01-21T18:14:56.486Z,17.87
2018-01-21T18:17:26.170Z,18.60
2018-01-21T18:19:56.631Z,20.23
2018-01-21T18:22:26.317Z,19.07
2018-01-21T18:24:56.783Z,18.83
2018-01-21T18:27:26.464Z,20.53
2018-01-21T18:29:56.169Z,19.20
2018-01-21T18:32:25.861Z,20.13
2018-01-21T18:34:56.924Z,20.10
2018-01-21T18:37:26.617Z,19.97
2018-01-21T18:39:57.083Z,18.97
2018-01-21T18:42:26.758Z,19.60
2018-01-21T18:44:57.210Z,20.60
2018-01-21T18:47:28.018Z,20.03
2018-01-21T18:49:58.519Z,20.90
2018-01-21T18:52:28.199Z,19.90
2018-01-21T18:54:57.862Z,21.20
2018-01-21T18:57:28.313Z,20.00
2018-01-21T18:59:58.028Z,18.77
2018-01-21T19:02:28.066Z,17.07
2018-01-21T19:04:57.739Z,16.87
2018-01-21T19:07:27.426Z,16.60
2018-01-21T19:09:57.875Z,17.77
2018-01-21T19:12:27.596Z,14.97
2018-01-21T19:14:57.279Z,15.77
2018-01-21T19:17:27.746Z,15.80
2018-01-21T19:19:57.476Z,14.53
2018-01-21T19:22:27.197Z,14.70
2018-01-21T19:24:56.871Z,14.73
2018-01-21T19:27:26.565Z,15.40
2018-01-21T19:29:56.267Z,14.07
2018-01-21T19:32:25.978Z,14.40
2018-01-21T19:34:55.638Z,14.07
2018-01-21T19:37:27.222Z,13.97
2018-01-21T19:40:15.204Z,13.00
2018-01-21T19:42:59.536Z,13.77
2018-01-21T19:45:29.381Z,14.27
2018-01-21T19:47:59.073Z,14.10
2018-01-21T19:50:28.761Z,13.60
2018-01-21T19:52:58.460Z,13.73
2018-01-21T19:55:28.895Z,13.00
2018-01-21T19:57:58.589Z,13.43
2018-01-21T20:00:29.064Z,16.00
2018-01-21T20:02:58.794Z,14.77
2018-01-21T20:05:28.458Z,16.10
2018-01-21T20:07:58.180Z,16.63
2018-01-21T20:10:27.860Z,16.70
2018-01-21T20:12:57.883Z,16.13
2018-01-21T20:15:27.986Z,15.70
2018-01-21T20:17:58.449Z,14.93
2018-01-21T20:20:28.150Z,16.80
2018-01-21T20:22:57.863Z,15.23
2018-01-21T20:25:28.387Z,14.43
2018-01-21T20:27:58.276Z,15.67
2018-01-21T20:30:28.719Z,15.70
2018-01-21T20:32:58.430Z,16.77
2018-01-21T20:35:28.137Z,15.10
2018-01-21T20:37:57.865Z,14.87
2018-01-21T20:40:27.542Z,13.87
2018-01-21T20:42:58.042Z,14.87
2018-01-21T20:45:27.694Z,13.67
2018-01-21T20:47:57.386Z,14.00
2018-01-21T20:50:27.843Z,14.43
2018-01-21T20:52:57.754Z,14.07
2018-01-21T20:55:27.458Z,13.50
2018-01-21T20:57:57.166Z,11.90
2018-01-21T21:00:26.893Z,12.00
2018-01-21T21:02:56.613Z,11.90
2018-01-21T21:05:26.296Z,12.40
2018-01-21T21:07:55.999Z,12.10
2018-01-21T21:10:25.691Z,11.93
2018-01-21T21:12:56.150Z,12.40
2018-01-21T21:15:25.842Z,12.63
2018-01-21T21:17:56.297Z,10.33
2018-01-21T21:20:25.964Z,8.20
2018-01-21T21:22:56.459Z,8.20
2018-01-21T21:25:26.134Z,7.20
2018-01-21T21:27:55.815Z,7.50
2018-01-21T21:30:25.477Z,7.00
2018-01-21T21:32:55.163Z,6.50
2018-01-21T21:35:24.825Z,6.67
2018-01-21T21:37:54.528Z,6.97
2018-01-21T21:40:24.217Z,6.10
2018-01-21T21:42:54.554Z,5.30
2018-01-21T21:45:24.266Z,6.43
2018-01-21T21:47:53.945Z,6.20
2018-01-21T21:50:23.639Z,6.47
2018-01-21T21:52:53.316Z,6.90
2018-01-21T21:55:23.789Z,5.67
2018-01-21T21:57:53.431Z,5.87
2018-01-21T22:00:23.120Z,6.17
2018-01-21T22:02:52.827Z,5.70
2018-01-21T22:05:22.533Z,6.50
2018-01-21T22:07:52.184Z,6.37
2018-01-21T22:10:22.644Z,6.60
2018-01-21T22:12:52.304Z,5.97
2018-01-21T22:15:22.012Z,6.40
2018-01-21T22:17:51.677Z,6.00
2018-01-21T22:20:21.392Z,7.20
2018-01-21T22:22:51.089Z,5.93
2018-01-21T22:25:20.799Z,5.87
2018-01-21T22:27:50.462Z,6.00
2018-01-21T22:30:20.205Z,6.00
2018-01-21T22:32:49.874Z,5.60
2018-01-21T22:35:19.561Z,6.50
2018-01-21T22:37:49.252Z,5.40
2018-01-21T22:40:18.927Z,4.70
2018-01-21T22:42:49.352Z,5.70
2018-01-21T22:45:19.771Z,7.10
2018-01-21T22:47:49.464Z,6.23
2018-01-21T22:50:19.161Z,5.23
2018-01-21T22:52:48.839Z,5.10
2018-01-21T22:55:18.530Z,5.50
2018-01-21T22:57:48.218Z,6.00
2018-01-21T23:00:17.938Z,5.40
2018-01-21T23:02:48.393Z,5.97
2018-01-21T23:05:18.102Z,5.00
2018-01-21T23:07:47.789Z,5.73
2018-01-21T23:10:18.235Z,6.10
2018-01-21T23:12:47.915Z,6.00
2018-01-21T23:15:18.425Z,6.03
2018-01-21T23:17:48.133Z,6.00
2018-01-21T23:20:23.618Z,4.70
2018-01-21T23:22:53.283Z,4.70
2018-01-21T23:25:22.938Z,5.47
2018-01-21T23:27:52.654Z,5.27
2018-01-21T23:30:22.349Z,5.67
2018-01-21T23:32:52.018Z,6.20
2018-01-21T23:35:21.694Z,5.10
2018-01-21T23:37:51.690Z,5.73
2018-01-21T23:40:21.341Z,5.43
2018-01-21T23:42:51.085Z,5.13
2018-01-21T23:45:21.525Z,5.63
2018-01-21T23:47:52.025Z,5.00
2018-01-21T23:50:21.705Z,5.60
2018-01-21T23:52:51.424Z,5.27
2018-01-21T23:55:21.117Z,5.43
2018-01-21T23:57:51.515Z,6.30
